sensor_id;sensor_type;location;lat;lon;timestamp;P1;durP1;ratioP1;P2;durP2;ratioP2
70829;SDS011;58451;51.550;7.208;2023-03-18T00:00:06;5.00;;;1.20;;
70829;SDS011;58451;51.550;7.208;2023-03-18T00:01:42;7.00;;;1.50;;
70829;SDS011;58451;51.550;7.208;2023-03-18T00:03:15;5.30;;;1.30;;
70829;SDS011;58451;51.550;7.208;2023-03-18T00:04:48;5.10;;;1.20;;
70829;SDS011;58451;51.550;7.208;2023-03-18T00:06:20;7.80;;;1.50;;
70829;SDS011;58451;51.550;7.208;2023-03-18T00:07:52;4.20;;;0.90;;
70829;SDS011;58451;51.550;7.208;2023-03-18T00:09:24;6.60;;;1.30;;
70829;SDS011;58451;51.550;7.208;2023-03-18T00:10:56;5.90;;;1.50;;
70829;SDS011;58451;51.550;7.208;2023-03-18T00:12:29;6.20;;;1.10;;
70829;SDS011;58451;51.550;7.208;2023-03-18T00:14:02;7.80;;;1.30;;
70829;SDS011;58451;51.550;7.208;2023-03-18T00:15:34;6.20;;;1.30;;
70829;SDS011;58451;51.550;7.208;2023-03-18T00:17:07;5.00;;;1.10;;
70829;SDS011;58451;51.550;7.208;2023-03-18T00:18:40;6.60;;;1.30;;
70829;SDS011;58451;51.550;7.208;2023-03-18T00:20:14;6.30;;;1.20;;
70829;SDS011;58451;51.550;7.208;2023-03-18T00:21:49;5.10;;;1.10;;
70829;SDS011;58451;51.550;7.208;2023-03-18T00:23:21;6.30;;;1.40;;
70829;SDS011;58451;51.550;7.208;2023-03-18T00:24:53;6.50;;;1.40;;
70829;SDS011;58451;51.550;7.208;2023-03-18T00:26:26;5.80;;;1.10;;
70829;SDS011;58451;51.550;7.208;2023-03-18T00:27:59;5.50;;;1.00;;
70829;SDS011;58451;51.550;7.208;2023-03-18T00:29:30;7.50;;;1.40;;
70829;SDS011;58451;51.550;7.208;2023-03-18T00:31:08;7.40;;;1.20;;
70829;SDS011;58451;51.550;7.208;2023-03-18T00:32:41;5.60;;;1.00;;
70829;SDS011;58451;51.550;7.208;2023-03-18T00:34:14;6.40;;;1.20;;
70829;SDS011;58451;51.550;7.208;2023-03-18T00:35:46;7.70;;;1.50;;
70829;SDS011;58451;51.550;7.208;2023-03-18T00:37:18;6.20;;;1.30;;
70829;SDS011;58451;51.550;7.208;2023-03-18T00:39:02;5.20;;;1.10;;
70829;SDS011;58451;51.550;7.208;2023-03-18T00:40:35;7.20;;;1.20;;
70829;SDS011;58451;51.550;7.208;2023-03-18T00:42:24;8.00;;;1.60;;
70829;SDS011;58451;51.550;7.208;2023-03-18T00:43:56;5.30;;;1.40;;
70829;SDS011;58451;51.550;7.208;2023-03-18T00:45:28;6.90;;;1.70;;
70829;SDS011;58451;51.550;7.208;2023-03-18T00:47:00;6.50;;;1.30;;
70829;SDS011;58451;51.550;7.208;2023-03-18T00:48:32;8.50;;;1.60;;
70829;SDS011;58451;51.550;7.208;2023-03-18T00:50:06;6.30;;;1.20;;
70829;SDS011;58451;51.550;7.208;2023-03-18T00:51:39;6.70;;;1.40;;
70829;SDS011;58451;51.550;7.208;2023-03-18T00:53:12;6.60;;;1.40;;
70829;SDS011;58451;51.550;7.208;2023-03-18T00:54:44;7.90;;;1.80;;
70829;SDS011;58451;51.550;7.208;2023-03-18T00:56:19;4.70;;;1.20;;
70829;SDS011;58451;51.550;7.208;2023-03-18T00:57:52;6.20;;;1.20;;
70829;SDS011;58451;51.550;7.208;2023-03-18T00:59:24;6.70;;;1.60;;
70829;SDS011;58451;51.550;7.208;2023-03-18T01:00:56;8.60;;;1.60;;
70829;SDS011;58451;51.550;7.208;2023-03-18T01:02:28;7.60;;;1.50;;
70829;SDS011;58451;51.550;7.208;2023-03-18T01:04:01;5.10;;;1.30;;
70829;SDS011;58451;51.550;7.208;2023-03-18T01:05:35;6.00;;;1.50;;
70829;SDS011;58451;51.550;7.208;2023-03-18T01:07:08;8.00;;;1.70;;
70829;SDS011;58451;51.550;7.208;2023-03-18T01:08:42;6.20;;;1.30;;
70829;SDS011;58451;51.550;7.208;2023-03-18T01:10:14;5.10;;;1.20;;
70829;SDS011;58451;51.550;7.208;2023-03-18T01:11:46;8.00;;;1.70;;
70829;SDS011;58451;51.550;7.208;2023-03-18T01:13:18;3.70;;;1.00;;
70829;SDS011;58451;51.550;7.208;2023-03-18T01:14:51;7.80;;;1.70;;
70829;SDS011;58451;51.550;7.208;2023-03-18T01:16:23;6.00;;;1.40;;
70829;SDS011;58451;51.550;7.208;2023-03-18T01:17:55;5.10;;;1.40;;
70829;SDS011;58451;51.550;7.208;2023-03-18T01:19:28;7.00;;;1.60;;
70829;SDS011;58451;51.550;7.208;2023-03-18T01:21:00;6.10;;;1.60;;
70829;SDS011;58451;51.550;7.208;2023-03-18T01:22:36;5.20;;;1.30;;
70829;SDS011;58451;51.550;7.208;2023-03-18T01:24:10;8.70;;;1.50;;
70829;SDS011;58451;51.550;7.208;2023-03-18T01:25:42;6.40;;;1.20;;
70829;SDS011;58451;51.550;7.208;2023-03-18T01:27:17;5.90;;;1.40;;
70829;SDS011;58451;51.550;7.208;2023-03-18T01:28:49;5.10;;;1.10;;
70829;SDS011;58451;51.550;7.208;2023-03-18T01:30:22;6.30;;;1.10;;
70829;SDS011;58451;51.550;7.208;2023-03-18T01:31:54;8.60;;;1.70;;
70829;SDS011;58451;51.550;7.208;2023-03-18T01:33:27;6.20;;;1.40;;
70829;SDS011;58451;51.550;7.208;2023-03-18T01:35:01;6.70;;;1.20;;
70829;SDS011;58451;51.550;7.208;2023-03-18T01:36:33;5.50;;;1.20;;
70829;SDS011;58451;51.550;7.208;2023-03-18T01:38:09;6.30;;;1.50;;
70829;SDS011;58451;51.550;7.208;2023-03-18T01:39:41;7.90;;;1.50;;
70829;SDS011;58451;51.550;7.208;2023-03-18T01:41:18;6.00;;;1.30;;
70829;SDS011;58451;51.550;7.208;2023-03-18T01:44:45;5.70;;;1.30;;
70829;SDS011;58451;51.550;7.208;2023-03-18T01:46:34;5.70;;;1.50;;
70829;SDS011;58451;51.550;7.208;2023-03-18T01:48:14;10.50;;;2.20;;
70829;SDS011;58451;51.550;7.208;2023-03-18T01:49:49;4.10;;;1.10;;
70829;SDS011;58451;51.550;7.208;2023-03-18T01:51:24;6.30;;;1.50;;
70829;SDS011;58451;51.550;7.208;2023-03-18T01:53:27;7.10;;;1.30;;
70829;SDS011;58451;51.550;7.208;2023-03-18T01:55:05;6.70;;;1.40;;
70829;SDS011;58451;51.550;7.208;2023-03-18T01:56:43;5.50;;;1.00;;
70829;SDS011;58451;51.550;7.208;2023-03-18T01:58:20;5.80;;;1.40;;
70829;SDS011;58451;51.550;7.208;2023-03-18T01:59:58;7.10;;;1.20;;
70829;SDS011;58451;51.550;7.208;2023-03-18T02:01:49;6.90;;;1.20;;
70829;SDS011;58451;51.550;7.208;2023-03-18T02:03:25;4.70;;;1.40;;
70829;SDS011;58451;51.550;7.208;2023-03-18T02:05:01;6.70;;;1.40;;
70829;SDS011;58451;51.550;7.208;2023-03-18T02:06:37;6.10;;;1.40;;
70829;SDS011;58451;51.550;7.208;2023-03-18T02:08:09;7.00;;;1.60;;
70829;SDS011;58451;51.550;7.208;2023-03-18T02:09:41;6.30;;;1.30;;
70829;SDS011;58451;51.550;7.208;2023-03-18T02:11:14;7.20;;;1.40;;
70829;SDS011;58451;51.550;7.208;2023-03-18T02:12:59;6.80;;;1.40;;
70829;SDS011;58451;51.550;7.208;2023-03-18T02:14:38;7.10;;;1.50;;
70829;SDS011;58451;51.550;7.208;2023-03-18T02:16:17;8.80;;;1.80;;
70829;SDS011;58451;51.550;7.208;2023-03-18T02:18:02;6.90;;;1.40;;
70829;SDS011;58451;51.550;7.208;2023-03-18T02:23:33;6.50;;;1.60;;
70829;SDS011;58451;51.550;7.208;2023-03-18T02:27:33;6.40;;;1.30;;
70829;SDS011;58451;51.550;7.208;2023-03-18T02:29:10;7.00;;;1.50;;
70829;SDS011;58451;51.550;7.208;2023-03-18T02:30:57;7.50;;;1.60;;
70829;SDS011;58451;51.550;7.208;2023-03-18T02:32:33;8.20;;;1.50;;
70829;SDS011;58451;51.550;7.208;2023-03-18T02:34:06;7.10;;;1.50;;
70829;SDS011;58451;51.550;7.208;2023-03-18T02:35:43;7.10;;;1.50;;
70829;SDS011;58451;51.550;7.208;2023-03-18T02:37:17;6.20;;;1.30;;
70829;SDS011;58451;51.550;7.208;2023-03-18T02:38:49;7.90;;;1.50;;
70829;SDS011;58451;51.550;7.208;2023-03-18T02:40:29;6.80;;;1.20;;
70829;SDS011;58451;51.550;7.208;2023-03-18T02:42:05;6.20;;;1.40;;
70829;SDS011;58451;51.550;7.208;2023-03-18T02:43:37;6.20;;;1.60;;
70829;SDS011;58451;51.550;7.208;2023-03-18T02:45:22;5.50;;;1.60;;
70829;SDS011;58451;51.550;7.208;2023-03-18T02:47:19;5.10;;;1.40;;
70829;SDS011;58451;51.550;7.208;2023-03-18T02:48:53;6.20;;;1.50;;
70829;SDS011;58451;51.550;7.208;2023-03-18T02:50:27;5.90;;;1.40;;
70829;SDS011;58451;51.550;7.208;2023-03-18T02:51:58;8.70;;;1.70;;
70829;SDS011;58451;51.550;7.208;2023-03-18T02:53:31;6.00;;;1.30;;
70829;SDS011;58451;51.550;7.208;2023-03-18T02:55:03;7.30;;;1.30;;
70829;SDS011;58451;51.550;7.208;2023-03-18T02:56:36;8.50;;;1.90;;
70829;SDS011;58451;51.550;7.208;2023-03-18T02:58:09;7.00;;;1.80;;
70829;SDS011;58451;51.550;7.208;2023-03-18T02:59:41;8.00;;;1.60;;
70829;SDS011;58451;51.550;7.208;2023-03-18T03:01:13;9.50;;;1.80;;
70829;SDS011;58451;51.550;7.208;2023-03-18T03:02:46;4.50;;;1.40;;
70829;SDS011;58451;51.550;7.208;2023-03-18T03:04:20;7.00;;;1.10;;
70829;SDS011;58451;51.550;7.208;2023-03-18T03:05:55;5.90;;;1.40;;
70829;SDS011;58451;51.550;7.208;2023-03-18T03:07:27;5.70;;;1.80;;
70829;SDS011;58451;51.550;7.208;2023-03-18T03:09:01;6.20;;;1.60;;
70829;SDS011;58451;51.550;7.208;2023-03-18T03:10:35;6.20;;;1.50;;
70829;SDS011;58451;51.550;7.208;2023-03-18T03:12:07;6.00;;;1.40;;
70829;SDS011;58451;51.550;7.208;2023-03-18T03:13:44;6.10;;;1.40;;
70829;SDS011;58451;51.550;7.208;2023-03-18T03:15:16;6.40;;;1.70;;
70829;SDS011;58451;51.550;7.208;2023-03-18T03:16:52;6.70;;;1.50;;
70829;SDS011;58451;51.550;7.208;2023-03-18T03:18:24;6.20;;;1.50;;
70829;SDS011;58451;51.550;7.208;2023-03-18T03:19:57;6.30;;;1.50;;
70829;SDS011;58451;51.550;7.208;2023-03-18T03:21:29;7.80;;;2.00;;
70829;SDS011;58451;51.550;7.208;2023-03-18T03:23:02;6.40;;;2.00;;
70829;SDS011;58451;51.550;7.208;2023-03-18T03:24:35;6.20;;;1.70;;
70829;SDS011;58451;51.550;7.208;2023-03-18T03:26:07;7.60;;;1.70;;
70829;SDS011;58451;51.550;7.208;2023-03-18T03:27:40;6.20;;;1.80;;
70829;SDS011;58451;51.550;7.208;2023-03-18T03:29:12;7.00;;;1.60;;
70829;SDS011;58451;51.550;7.208;2023-03-18T03:30:44;6.40;;;1.90;;
70829;SDS011;58451;51.550;7.208;2023-03-18T03:32:16;6.20;;;1.90;;
70829;SDS011;58451;51.550;7.208;2023-03-18T03:33:50;7.30;;;1.70;;
70829;SDS011;58451;51.550;7.208;2023-03-18T03:35:23;5.60;;;1.60;;
70829;SDS011;58451;51.550;7.208;2023-03-18T03:36:55;6.60;;;1.80;;
70829;SDS011;58451;51.550;7.208;2023-03-18T03:38:28;7.20;;;2.10;;
70829;SDS011;58451;51.550;7.208;2023-03-18T03:40:00;9.60;;;2.10;;
70829;SDS011;58451;51.550;7.208;2023-03-18T03:41:32;7.20;;;2.00;;
70829;SDS011;58451;51.550;7.208;2023-03-18T03:43:05;6.50;;;1.80;;
70829;SDS011;58451;51.550;7.208;2023-03-18T03:44:37;6.30;;;1.80;;
70829;SDS011;58451;51.550;7.208;2023-03-18T03:46:10;8.10;;;2.20;;
70829;SDS011;58451;51.550;7.208;2023-03-18T03:47:43;6.90;;;1.90;;
70829;SDS011;58451;51.550;7.208;2023-03-18T03:49:18;10.80;;;2.30;;
70829;SDS011;58451;51.550;7.208;2023-03-18T03:50:50;9.30;;;1.90;;
70829;SDS011;58451;51.550;7.208;2023-03-18T03:52:22;5.40;;;1.70;;
70829;SDS011;58451;51.550;7.208;2023-03-18T03:53:54;7.30;;;2.10;;
70829;SDS011;58451;51.550;7.208;2023-03-18T03:55:26;9.70;;;2.00;;
70829;SDS011;58451;51.550;7.208;2023-03-18T03:56:58;7.10;;;2.40;;
70829;SDS011;58451;51.550;7.208;2023-03-18T03:58:31;6.60;;;1.80;;
70829;SDS011;58451;51.550;7.208;2023-03-18T04:00:07;7.40;;;2.00;;
70829;SDS011;58451;51.550;7.208;2023-03-18T04:01:49;6.70;;;2.10;;
70829;SDS011;58451;51.550;7.208;2023-03-18T04:03:21;6.10;;;1.60;;
70829;SDS011;58451;51.550;7.208;2023-03-18T04:04:54;9.10;;;2.10;;
70829;SDS011;58451;51.550;7.208;2023-03-18T04:06:31;7.10;;;1.70;;
70829;SDS011;58451;51.550;7.208;2023-03-18T04:08:04;8.20;;;2.10;;
70829;SDS011;58451;51.550;7.208;2023-03-18T04:09:39;6.20;;;1.90;;
70829;SDS011;58451;51.550;7.208;2023-03-18T04:11:11;6.40;;;1.80;;
70829;SDS011;58451;51.550;7.208;2023-03-18T04:12:44;7.10;;;1.90;;
70829;SDS011;58451;51.550;7.208;2023-03-18T04:14:18;5.80;;;1.70;;
70829;SDS011;58451;51.550;7.208;2023-03-18T04:15:49;10.00;;;2.50;;
70829;SDS011;58451;51.550;7.208;2023-03-18T04:17:22;6.80;;;2.30;;
70829;SDS011;58451;51.550;7.208;2023-03-18T04:18:55;5.40;;;1.50;;
70829;SDS011;58451;51.550;7.208;2023-03-18T04:20:27;7.10;;;1.80;;
70829;SDS011;58451;51.550;7.208;2023-03-18T04:21:59;8.10;;;1.80;;
70829;SDS011;58451;51.550;7.208;2023-03-18T04:23:30;7.00;;;1.80;;
70829;SDS011;58451;51.550;7.208;2023-03-18T04:25:04;8.00;;;2.10;;
70829;SDS011;58451;51.550;7.208;2023-03-18T04:26:36;9.20;;;2.20;;
70829;SDS011;58451;51.550;7.208;2023-03-18T04:28:09;8.90;;;2.20;;
70829;SDS011;58451;51.550;7.208;2023-03-18T04:29:41;7.60;;;2.00;;
70829;SDS011;58451;51.550;7.208;2023-03-18T04:31:13;5.90;;;1.80;;
70829;SDS011;58451;51.550;7.208;2023-03-18T04:32:45;7.80;;;1.90;;
70829;SDS011;58451;51.550;7.208;2023-03-18T04:34:17;6.30;;;1.90;;
70829;SDS011;58451;51.550;7.208;2023-03-18T04:35:49;5.50;;;1.90;;
70829;SDS011;58451;51.550;7.208;2023-03-18T04:37:21;11.00;;;2.10;;
70829;SDS011;58451;51.550;7.208;2023-03-18T04:38:55;8.30;;;2.10;;
70829;SDS011;58451;51.550;7.208;2023-03-18T04:40:30;6.40;;;2.10;;
70829;SDS011;58451;51.550;7.208;2023-03-18T04:42:04;7.40;;;2.10;;
70829;SDS011;58451;51.550;7.208;2023-03-18T04:43:36;7.70;;;2.10;;
70829;SDS011;58451;51.550;7.208;2023-03-18T04:45:08;7.80;;;2.10;;
70829;SDS011;58451;51.550;7.208;2023-03-18T04:46:40;7.90;;;2.10;;
70829;SDS011;58451;51.550;7.208;2023-03-18T04:48:12;6.20;;;1.70;;
70829;SDS011;58451;51.550;7.208;2023-03-18T04:49:45;10.60;;;2.30;;
70829;SDS011;58451;51.550;7.208;2023-03-18T04:51:17;8.80;;;2.40;;
70829;SDS011;58451;51.550;7.208;2023-03-18T04:52:49;7.30;;;2.10;;
70829;SDS011;58451;51.550;7.208;2023-03-18T04:54:25;8.20;;;2.20;;
70829;SDS011;58451;51.550;7.208;2023-03-18T04:55:58;6.50;;;1.80;;
70829;SDS011;58451;51.550;7.208;2023-03-18T04:57:37;7.60;;;1.80;;
70829;SDS011;58451;51.550;7.208;2023-03-18T04:59:10;7.80;;;2.30;;
70829;SDS011;58451;51.550;7.208;2023-03-18T05:00:42;9.00;;;2.50;;
70829;SDS011;58451;51.550;7.208;2023-03-18T05:02:24;8.80;;;2.50;;
70829;SDS011;58451;51.550;7.208;2023-03-18T05:03:56;7.40;;;2.30;;
70829;SDS011;58451;51.550;7.208;2023-03-18T05:05:33;6.80;;;2.00;;
70829;SDS011;58451;51.550;7.208;2023-03-18T05:07:11;7.20;;;2.30;;
70829;SDS011;58451;51.550;7.208;2023-03-18T05:08:51;7.80;;;2.60;;
70829;SDS011;58451;51.550;7.208;2023-03-18T05:10:23;7.10;;;1.90;;
70829;SDS011;58451;51.550;7.208;2023-03-18T05:11:55;13.00;;;2.50;;
70829;SDS011;58451;51.550;7.208;2023-03-18T05:13:37;5.50;;;1.90;;
70829;SDS011;58451;51.550;7.208;2023-03-18T05:15:10;8.60;;;2.20;;
70829;SDS011;58451;51.550;7.208;2023-03-18T05:16:46;8.70;;;2.60;;
70829;SDS011;58451;51.550;7.208;2023-03-18T05:18:18;6.50;;;2.30;;
70829;SDS011;58451;51.550;7.208;2023-03-18T05:19:51;10.20;;;3.00;;
70829;SDS011;58451;51.550;7.208;2023-03-18T05:21:24;7.00;;;2.30;;
70829;SDS011;58451;51.550;7.208;2023-03-18T05:22:56;7.60;;;2.40;;
70829;SDS011;58451;51.550;7.208;2023-03-18T05:24:56;8.80;;;2.70;;
70829;SDS011;58451;51.550;7.208;2023-03-18T05:26:29;8.50;;;3.00;;
70829;SDS011;58451;51.550;7.208;2023-03-18T05:28:01;7.50;;;2.60;;
70829;SDS011;58451;51.550;7.208;2023-03-18T05:29:40;7.50;;;2.60;;
70829;SDS011;58451;51.550;7.208;2023-03-18T05:31:18;8.40;;;2.70;;
70829;SDS011;58451;51.550;7.208;2023-03-18T05:32:51;6.40;;;2.20;;
70829;SDS011;58451;51.550;7.208;2023-03-18T05:34:38;10.00;;;2.50;;
70829;SDS011;58451;51.550;7.208;2023-03-18T05:36:12;6.40;;;1.90;;
70829;SDS011;58451;51.550;7.208;2023-03-18T05:37:54;9.40;;;2.50;;
70829;SDS011;58451;51.550;7.208;2023-03-18T05:39:26;9.00;;;2.30;;
70829;SDS011;58451;51.550;7.208;2023-03-18T05:40:58;7.30;;;2.90;;
70829;SDS011;58451;51.550;7.208;2023-03-18T05:42:40;7.10;;;2.40;;
70829;SDS011;58451;51.550;7.208;2023-03-18T05:44:35;8.10;;;2.80;;
70829;SDS011;58451;51.550;7.208;2023-03-18T05:46:08;8.20;;;2.70;;
70829;SDS011;58451;51.550;7.208;2023-03-18T05:48:00;6.80;;;2.30;;
70829;SDS011;58451;51.550;7.208;2023-03-18T05:49:34;7.70;;;3.00;;
70829;SDS011;58451;51.550;7.208;2023-03-18T05:51:19;7.40;;;2.20;;
70829;SDS011;58451;51.550;7.208;2023-03-18T05:52:51;6.80;;;2.80;;
70829;SDS011;58451;51.550;7.208;2023-03-18T05:54:24;8.20;;;2.70;;
70829;SDS011;58451;51.550;7.208;2023-03-18T05:55:56;7.10;;;2.30;;
70829;SDS011;58451;51.550;7.208;2023-03-18T05:57:28;7.20;;;2.50;;
70829;SDS011;58451;51.550;7.208;2023-03-18T05:59:05;9.80;;;2.80;;
70829;SDS011;58451;51.550;7.208;2023-03-18T06:00:44;10.40;;;3.40;;
70829;SDS011;58451;51.550;7.208;2023-03-18T06:02:16;11.30;;;3.10;;
70829;SDS011;58451;51.550;7.208;2023-03-18T06:03:48;8.20;;;3.30;;
70829;SDS011;58451;51.550;7.208;2023-03-18T06:05:21;10.10;;;3.60;;
70829;SDS011;58451;51.550;7.208;2023-03-18T06:06:53;9.50;;;2.60;;
70829;SDS011;58451;51.550;7.208;2023-03-18T06:08:26;7.80;;;3.00;;
70829;SDS011;58451;51.550;7.208;2023-03-18T06:09:59;8.10;;;2.50;;
70829;SDS011;58451;51.550;7.208;2023-03-18T06:11:31;7.80;;;2.80;;
70829;SDS011;58451;51.550;7.208;2023-03-18T06:13:03;9.40;;;3.20;;
70829;SDS011;58451;51.550;7.208;2023-03-18T06:14:36;6.80;;;2.70;;
70829;SDS011;58451;51.550;7.208;2023-03-18T06:16:09;8.10;;;3.00;;
70829;SDS011;58451;51.550;7.208;2023-03-18T06:17:41;8.60;;;3.00;;
70829;SDS011;58451;51.550;7.208;2023-03-18T06:19:13;8.10;;;3.10;;
70829;SDS011;58451;51.550;7.208;2023-03-18T06:20:45;6.60;;;2.30;;
70829;SDS011;58451;51.550;7.208;2023-03-18T06:22:17;8.60;;;3.00;;
70829;SDS011;58451;51.550;7.208;2023-03-18T06:23:49;8.10;;;2.50;;
70829;SDS011;58451;51.550;7.208;2023-03-18T06:25:22;10.10;;;2.80;;
70829;SDS011;58451;51.550;7.208;2023-03-18T06:26:55;9.40;;;3.00;;
70829;SDS011;58451;51.550;7.208;2023-03-18T06:28:27;7.60;;;2.90;;
70829;SDS011;58451;51.550;7.208;2023-03-18T06:30:01;8.20;;;3.00;;
70829;SDS011;58451;51.550;7.208;2023-03-18T06:31:36;9.30;;;2.70;;
70829;SDS011;58451;51.550;7.208;2023-03-18T06:33:10;8.60;;;3.30;;
70829;SDS011;58451;51.550;7.208;2023-03-18T06:34:42;7.00;;;2.60;;
70829;SDS011;58451;51.550;7.208;2023-03-18T06:36:14;7.50;;;2.60;;
70829;SDS011;58451;51.550;7.208;2023-03-18T06:37:51;9.00;;;2.80;;
70829;SDS011;58451;51.550;7.208;2023-03-18T06:39:24;9.30;;;3.50;;
70829;SDS011;58451;51.550;7.208;2023-03-18T06:40:57;10.10;;;3.00;;
70829;SDS011;58451;51.550;7.208;2023-03-18T06:42:30;8.30;;;3.00;;
70829;SDS011;58451;51.550;7.208;2023-03-18T06:44:09;8.40;;;3.10;;
70829;SDS011;58451;51.550;7.208;2023-03-18T06:45:44;8.60;;;2.80;;
70829;SDS011;58451;51.550;7.208;2023-03-18T06:47:17;9.10;;;3.30;;
70829;SDS011;58451;51.550;7.208;2023-03-18T06:48:56;9.40;;;3.60;;
70829;SDS011;58451;51.550;7.208;2023-03-18T06:50:32;6.80;;;2.60;;
70829;SDS011;58451;51.550;7.208;2023-03-18T06:52:04;9.30;;;3.60;;
70829;SDS011;58451;51.550;7.208;2023-03-18T06:53:36;7.60;;;2.60;;
70829;SDS011;58451;51.550;7.208;2023-03-18T06:55:09;7.60;;;3.30;;
70829;SDS011;58451;51.550;7.208;2023-03-18T06:56:43;9.50;;;3.30;;
70829;SDS011;58451;51.550;7.208;2023-03-18T06:58:20;7.30;;;3.10;;
70829;SDS011;58451;51.550;7.208;2023-03-18T07:00:10;9.10;;;3.00;;
70829;SDS011;58451;51.550;7.208;2023-03-18T07:01:43;8.80;;;3.70;;
70829;SDS011;58451;51.550;7.208;2023-03-18T07:03:16;8.30;;;3.10;;
70829;SDS011;58451;51.550;7.208;2023-03-18T07:04:48;7.10;;;2.70;;
70829;SDS011;58451;51.550;7.208;2023-03-18T07:06:20;10.50;;;3.30;;
70829;SDS011;58451;51.550;7.208;2023-03-18T07:07:53;8.80;;;3.10;;
70829;SDS011;58451;51.550;7.208;2023-03-18T07:09:26;10.70;;;4.10;;
70829;SDS011;58451;51.550;7.208;2023-03-18T07:11:00;7.90;;;2.90;;
70829;SDS011;58451;51.550;7.208;2023-03-18T07:12:34;9.10;;;3.40;;
70829;SDS011;58451;51.550;7.208;2023-03-18T07:14:06;9.50;;;3.40;;
70829;SDS011;58451;51.550;7.208;2023-03-18T07:15:39;10.30;;;3.20;;
70829;SDS011;58451;51.550;7.208;2023-03-18T07:17:11;10.60;;;3.60;;
70829;SDS011;58451;51.550;7.208;2023-03-18T07:18:45;9.20;;;3.50;;
70829;SDS011;58451;51.550;7.208;2023-03-18T07:20:17;9.90;;;3.50;;
70829;SDS011;58451;51.550;7.208;2023-03-18T07:21:49;8.80;;;3.00;;
70829;SDS011;58451;51.550;7.208;2023-03-18T07:23:21;7.20;;;3.10;;
70829;SDS011;58451;51.550;7.208;2023-03-18T07:24:53;7.70;;;2.90;;
70829;SDS011;58451;51.550;7.208;2023-03-18T07:26:27;8.40;;;3.10;;
70829;SDS011;58451;51.550;7.208;2023-03-18T07:27:59;7.80;;;3.20;;
70829;SDS011;58451;51.550;7.208;2023-03-18T07:29:31;6.70;;;2.70;;
70829;SDS011;58451;51.550;7.208;2023-03-18T07:31:04;6.80;;;2.90;;
70829;SDS011;58451;51.550;7.208;2023-03-18T07:32:36;8.00;;;3.00;;
70829;SDS011;58451;51.550;7.208;2023-03-18T07:34:10;8.70;;;3.10;;
70829;SDS011;58451;51.550;7.208;2023-03-18T07:35:45;9.10;;;3.60;;
70829;SDS011;58451;51.550;7.208;2023-03-18T07:37:17;6.80;;;2.70;;
70829;SDS011;58451;51.550;7.208;2023-03-18T07:38:49;7.10;;;2.90;;
70829;SDS011;58451;51.550;7.208;2023-03-18T07:40:22;7.40;;;2.90;;
70829;SDS011;58451;51.550;7.208;2023-03-18T07:41:54;11.00;;;3.40;;
70829;SDS011;58451;51.550;7.208;2023-03-18T07:43:32;7.80;;;3.20;;
70829;SDS011;58451;51.550;7.208;2023-03-18T07:45:05;8.10;;;3.00;;
70829;SDS011;58451;51.550;7.208;2023-03-18T07:46:38;7.60;;;3.00;;
70829;SDS011;58451;51.550;7.208;2023-03-18T07:48:10;9.20;;;3.00;;
70829;SDS011;58451;51.550;7.208;2023-03-18T07:49:42;8.00;;;3.10;;
70829;SDS011;58451;51.550;7.208;2023-03-18T07:51:14;8.50;;;3.00;;
70829;SDS011;58451;51.550;7.208;2023-03-18T07:52:46;8.50;;;3.30;;
70829;SDS011;58451;51.550;7.208;2023-03-18T07:54:19;7.10;;;2.80;;
70829;SDS011;58451;51.550;7.208;2023-03-18T07:55:50;7.90;;;3.00;;
70829;SDS011;58451;51.550;7.208;2023-03-18T07:57:22;7.30;;;2.90;;
70829;SDS011;58451;51.550;7.208;2023-03-18T07:58:54;8.90;;;3.10;;
70829;SDS011;58451;51.550;7.208;2023-03-18T08:00:26;7.00;;;3.20;;
70829;SDS011;58451;51.550;7.208;2023-03-18T08:01:59;9.50;;;3.30;;
70829;SDS011;58451;51.550;7.208;2023-03-18T08:03:31;11.50;;;3.20;;
70829;SDS011;58451;51.550;7.208;2023-03-18T08:05:05;8.10;;;3.30;;
70829;SDS011;58451;51.550;7.208;2023-03-18T08:06:37;8.00;;;3.20;;
70829;SDS011;58451;51.550;7.208;2023-03-18T08:08:09;7.50;;;3.30;;
70829;SDS011;58451;51.550;7.208;2023-03-18T08:09:41;8.20;;;3.30;;
70829;SDS011;58451;51.550;7.208;2023-03-18T08:11:13;10.10;;;3.10;;
70829;SDS011;58451;51.550;7.208;2023-03-18T08:12:45;9.10;;;3.10;;
70829;SDS011;58451;51.550;7.208;2023-03-18T08:14:24;7.30;;;2.80;;
70829;SDS011;58451;51.550;7.208;2023-03-18T08:15:56;7.40;;;2.60;;
70829;SDS011;58451;51.550;7.208;2023-03-18T08:17:29;7.30;;;2.80;;
70829;SDS011;58451;51.550;7.208;2023-03-18T08:19:01;7.10;;;2.50;;
70829;SDS011;58451;51.550;7.208;2023-03-18T08:20:33;7.10;;;2.90;;
70829;SDS011;58451;51.550;7.208;2023-03-18T08:22:05;7.20;;;2.60;;
70829;SDS011;58451;51.550;7.208;2023-03-18T08:23:37;5.80;;;2.50;;
70829;SDS011;58451;51.550;7.208;2023-03-18T08:25:09;8.30;;;2.70;;
70829;SDS011;58451;51.550;7.208;2023-03-18T08:26:42;6.90;;;2.50;;
70829;SDS011;58451;51.550;7.208;2023-03-18T08:28:16;8.20;;;2.60;;
70829;SDS011;58451;51.550;7.208;2023-03-18T08:29:48;8.40;;;2.60;;
70829;SDS011;58451;51.550;7.208;2023-03-18T08:31:20;6.20;;;2.60;;
70829;SDS011;58451;51.550;7.208;2023-03-18T08:32:54;5.50;;;2.00;;
70829;SDS011;58451;51.550;7.208;2023-03-18T08:34:26;9.50;;;2.60;;
70829;SDS011;58451;51.550;7.208;2023-03-18T08:35:58;6.50;;;2.10;;
70829;SDS011;58451;51.550;7.208;2023-03-18T08:37:30;5.90;;;1.90;;
70829;SDS011;58451;51.550;7.208;2023-03-18T08:39:03;4.50;;;2.00;;
70829;SDS011;58451;51.550;7.208;2023-03-18T08:40:36;6.80;;;2.20;;
70829;SDS011;58451;51.550;7.208;2023-03-18T08:42:08;8.50;;;1.70;;
70829;SDS011;58451;51.550;7.208;2023-03-18T08:43:40;7.60;;;2.30;;
70829;SDS011;58451;51.550;7.208;2023-03-18T08:45:12;6.50;;;2.40;;
70829;SDS011;58451;51.550;7.208;2023-03-18T08:46:45;7.10;;;2.40;;
70829;SDS011;58451;51.550;7.208;2023-03-18T08:48:18;6.10;;;1.70;;
70829;SDS011;58451;51.550;7.208;2023-03-18T08:49:51;6.70;;;2.40;;
70829;SDS011;58451;51.550;7.208;2023-03-18T08:51:22;8.10;;;2.60;;
70829;SDS011;58451;51.550;7.208;2023-03-18T08:52:57;5.70;;;2.30;;
70829;SDS011;58451;51.550;7.208;2023-03-18T08:54:30;5.00;;;2.10;;
70829;SDS011;58451;51.550;7.208;2023-03-18T08:56:03;5.10;;;2.00;;
70829;SDS011;58451;51.550;7.208;2023-03-18T08:57:37;9.90;;;2.20;;
70829;SDS011;58451;51.550;7.208;2023-03-18T08:59:09;5.10;;;1.50;;
70829;SDS011;58451;51.550;7.208;2023-03-18T09:00:41;5.40;;;1.70;;
70829;SDS011;58451;51.550;7.208;2023-03-18T09:02:14;5.30;;;1.70;;
70829;SDS011;58451;51.550;7.208;2023-03-18T09:03:48;6.80;;;2.20;;
70829;SDS011;58451;51.550;7.208;2023-03-18T09:05:21;4.70;;;1.50;;
70829;SDS011;58451;51.550;7.208;2023-03-18T09:06:53;6.50;;;2.00;;
70829;SDS011;58451;51.550;7.208;2023-03-18T09:08:26;6.20;;;1.70;;
70829;SDS011;58451;51.550;7.208;2023-03-18T09:10:01;4.20;;;1.60;;
70829;SDS011;58451;51.550;7.208;2023-03-18T09:11:34;4.60;;;1.60;;
70829;SDS011;58451;51.550;7.208;2023-03-18T09:13:07;5.00;;;1.70;;
70829;SDS011;58451;51.550;7.208;2023-03-18T09:14:39;5.20;;;1.70;;
70829;SDS011;58451;51.550;7.208;2023-03-18T09:16:14;5.10;;;1.50;;
70829;SDS011;58451;51.550;7.208;2023-03-18T09:17:46;5.90;;;1.70;;
70829;SDS011;58451;51.550;7.208;2023-03-18T09:19:38;5.20;;;1.90;;
70829;SDS011;58451;51.550;7.208;2023-03-18T09:21:10;6.00;;;2.00;;
70829;SDS011;58451;51.550;7.208;2023-03-18T09:22:44;6.10;;;1.80;;
70829;SDS011;58451;51.550;7.208;2023-03-18T09:24:16;4.20;;;1.80;;
70829;SDS011;58451;51.550;7.208;2023-03-18T09:25:48;5.40;;;1.80;;
70829;SDS011;58451;51.550;7.208;2023-03-18T09:27:20;5.80;;;1.80;;
70829;SDS011;58451;51.550;7.208;2023-03-18T09:28:52;6.00;;;2.20;;
70829;SDS011;58451;51.550;7.208;2023-03-18T09:30:24;4.30;;;1.60;;
70829;SDS011;58451;51.550;7.208;2023-03-18T09:31:57;3.80;;;1.60;;
70829;SDS011;58451;51.550;7.208;2023-03-18T09:33:29;6.20;;;2.20;;
70829;SDS011;58451;51.550;7.208;2023-03-18T09:35:01;6.10;;;2.20;;